Tropical Cyclones
[Index]
Main Index Home Page Stock Weather Photos Extreme Storms Discussion Storm News and Storm Chasing Reports Tropical Cyclones / Hurricanes / Typhoons Weather Data and Links Wild Fires / Bushfires Weather Observation Techniques Weather Picture Catalogue Tornado Pictures and Reports Stock Video Footage and DVDs for sale
Season 1986-1987 Tropical Cyclone DAMIEN Track Map
Season 1986-1987 Summaries: [BoM-AU] [JTWC-AU] [JTWC-SIO] [JTWC-SPAC] [JTWC-SH]
<<- Previous TC | BoM 1986-1987 Season | Next TC ->>

click for intensity scale information  Lat/long Grid: Show Hide

 Date Labels: Show Hide

Bureau of Meteorology Tropical Cyclone Data

Name: DAMIEN
Number: 697 / 198687_03

30 Jan 1987 21:00 UTC to 09 Feb 1987 00:00 UTC

    date/time    lat    long    hPa   cat  kts
1987-01-30 21   14.6   124.3    998         29          
1987-01-31 00   14.6   124.0    998         29          
1987-01-31 06   14.6   123.7    997         31          
1987-01-31 12   14.7   123.4    996         33          
1987-01-31 18   14.8   123.2    995    1    35          
1987-02-01 00   15.0   123.0    994    1    35          
1987-02-01 06   15.2   123.0    992    1    39          
1987-02-01 12   15.4   123.2    992    1    39          
1987-02-01 18   15.4   123.3    990    1    41          
1987-02-02 00   15.6   123.3    988    1    45          
1987-02-02 06   16.0   123.0    986    1    47          
1987-02-02 12   16.3   122.5    984    2    49          
1987-02-02 18   16.6   122.0    982    2    51          
1987-02-03 00   16.7   121.5    980    2    54          
1987-02-03 06   16.8   120.9    980    2    54          
1987-02-03 12   17.4   120.6    982    2    51          
1987-02-03 18   17.5   119.8    983    2    51          
1987-02-04 00   17.5   118.9    983    2    51          
1987-02-04 06   17.7   118.2    985    2    47          
1987-02-04 12   17.8   117.8    987    1    45          
1987-02-04 18   17.9   117.7    989    1    43          
1987-02-05 00   18.1   117.6    991    1    41          
1987-02-05 06   18.3   117.4    992    1    39          
1987-02-05 12   18.7   117.2    992    1    39          
1987-02-05 18   19.0   117.1    992    1    39          
1987-02-06 00   19.4   116.9    993    1    37          
1987-02-06 06   19.9   116.7    994    1    35          
1987-02-06 12   20.2   116.0    995    1    35          
1987-02-06 18   20.3   115.3    997         31          
1987-02-07 00   20.1   114.6    998         29          
1987-02-07 06   19.5   113.8    998         29          
1987-02-07 12   19.2   113.4    999         29          
1987-02-07 18   19.2   113.0    999         29          
1987-02-08 00   19.3   112.4    999         29          
1987-02-08 06   19.6   111.9    999         29          
1987-02-08 12   19.8   111.6    999         29          
1987-02-08 18   19.9   111.4    999         29          
1987-02-09 00   20.0   111.0   1000         27          
Winds are 10-min average.

Tropical cyclone tracks developed by Michael Bath using data from the Bureau of Meteorology and Google Maps.


[Australian Severe Weather index] [Copyright Notice] [Email Contacts] [Search This Site] [Privacy Policy]
Document: tropical_cyclone_damien.htm Updated: 30 May 2013